Time;durP1;ratioP1;P1;durP2;ratioP2;P2;SDS_P1;SDS_P2;PMS_P1;PMS_P2;Temp;Humidity;BMP_temperature;BMP_pressure;BME280_temperature;BME280_humidity;BME280_pressure;Samples;Min_cycle;Max_cycle;Signal;HPM_P1;HPM_P2
2024/02/19 09:49:26;;;;;;;;;;;;;;;10.89;62.42;100862.97;5133618;27;1905;-59
2024/02/19 09:51:54;;;;;;;;;;;;;;;11.24;62.14;100863.34;5134450;27;956;-59
2024/02/19 09:54:21;;;;;;;;;;;;;;;11.19;62.60;100871.97;5134219;27;902;-59
2024/02/19 09:56:50;;;;;;;;;;;;;;;11.11;61.86;100862.00;5134365;27;815;-59
2024/02/19 09:59:17;;;;;;;;;;;;;;;11.10;61.89;100865.97;5134142;27;941;-59
2024/02/19 10:01:44;;;;;;;;;;;;;;;11.02;60.69;100864.28;5134118;27;827;-59
2024/02/19 10:04:14;;;;;;;;;;;;;;;10.89;60.00;100868.50;5134035;27;859;-59
2024/02/19 10:06:41;;;;;;;;;;;;;;;11.02;61.18;100867.84;5134075;27;835;-59
2024/02/19 10:09:08;;;;;;;;;;;;;;;11.09;59.93;100864.34;5133935;27;1969;-59
2024/02/19 10:11:38;;;;;;;;;;;;;;;11.21;60.21;100860.53;5133921;27;835;-59
2024/02/19 10:14:05;;;;;;;;;;;;;;;11.57;60.00;100858.84;5133934;27;957;-59
2024/02/19 10:16:32;;;;;;;;;;;;;;;11.70;59.02;100859.34;5133846;27;1288;-58
2024/02/19 10:19:05;;;;;;;;;;;;;;;11.65;59.62;100854.19;5133980;27;882;-59
2024/02/19 10:21:32;;;;;;;;;;;;;;;11.46;59.69;100852.44;5134127;27;846;-59
2024/02/19 10:23:59;;;;;;;;;;;;;;;11.51;60.28;100852.09;5133786;27;831;-59
2024/02/19 10:26:25;;;;;;;;;;;;;;;11.47;60.45;100845.72;5133748;27;842;-59
2024/02/19 10:28:54;;;;;;;;;;;;;;;11.52;61.12;100839.84;5133656;27;1943;-59
2024/02/19 10:31:21;;;;;;;;;;;;;;;11.37;60.43;100840.88;5133554;27;833;-59
2024/02/19 10:33:48;;;;;;;;;;;;;;;11.29;60.67;100839.22;5115106;27;1214;-59
2024/02/19 10:36:19;;;;;;;;;;;;;;;11.59;60.11;100834.34;5133786;27;937;-59
2024/02/19 10:38:46;;;;;;;;;;;;;;;11.66;59.84;100825.31;5133027;27;851;-59
2024/02/19 10:41:13;;;;;;;;;;;;;;;11.64;59.68;100824.88;5133632;27;899;-59
2024/02/19 10:43:40;;;;;;;;;;;;;;;11.49;59.78;100818.44;5133303;27;824;-59
2024/02/19 10:46:06;;;;;;;;;;;;;;;11.37;59.64;100810.44;5133680;27;961;-59
2024/02/19 10:48:33;;;;;;;;;;;;;;;11.51;59.28;100799.47;5133142;27;1984;-59
2024/02/19 10:51:03;;;;;;;;;;;;;;;11.54;59.47;100801.50;5133607;27;835;-59
2024/02/19 10:53:30;;;;;;;;;;;;;;;12.01;59.48;100794.28;5133202;27;835;-59
2024/02/19 10:56:16;;;;;;;;;;;;;;;12.80;58.03;100789.00;5133229;27;823;-59
2024/02/19 10:59:08;;;;;;;;;;;;;;;12.57;55.88;100800.44;5133032;27;883;-59
2024/02/19 11:01:46;;;;;;;;;;;;;;;12.41;56.71;100794.44;5129766;27;1576;-59
2024/02/19 11:04:15;;;;;;;;;;;;;;;12.24;56.60;100795.97;5133313;27;922;-59
2024/02/19 11:06:54;;;;;;;;;;;;;;;12.34;56.69;100792.44;5132957;27;823;-59
2024/02/19 11:09:21;;;;;;;;;;;;;;;12.26;57.06;100791.59;5132790;27;1950;-59
2024/02/19 11:11:57;;;;;;;;;;;;;;;12.20;57.08;100793.16;5132902;27;831;-59
2024/02/19 11:14:24;;;;;;;;;;;;;;;12.27;57.44;100795.19;5132764;27;965;-59
2024/02/19 11:16:50;;;;;;;;;;;;;;;12.41;56.61;100786.13;5132881;27;870;-59
2024/02/19 11:19:18;;;;;;;;;;;;;;;12.30;56.73;100786.09;5132945;27;900;-59
2024/02/19 11:21:43;;;;;;;;;;;;;;;11.97;57.51;100782.41;5132866;27;815;-59
2024/02/19 11:24:10;;;;;;;;;;;;;;;11.63;58.55;100777.03;5132755;27;862;-59
2024/02/19 11:26:43;;;;;;;;;;;;;;;11.42;59.47;100776.88;5132802;27;917;-59
2024/02/19 11:29:14;;;;;;;;;;;;;;;11.35;59.30;100782.34;5132713;28;1889;-58
2024/02/19 11:31:40;;;;;;;;;;;;;;;11.59;58.58;100776.22;5132701;28;882;-59
2024/02/19 11:34:28;;;;;;;;;;;;;;;11.65;58.36;100768.34;5114220;28;856;-59
2024/02/19 11:37:03;;;;;;;;;;;;;;;11.92;58.23;100771.66;5132536;28;1985;-58
2024/02/19 11:39:31;;;;;;;;;;;;;;;12.07;57.12;100766.19;5132867;28;846;-59
2024/02/19 11:42:02;;;;;;;;;;;;;;;12.19;57.53;100757.53;5132784;28;830;-59
2024/02/19 11:44:29;;;;;;;;;;;;;;;12.32;59.12;100758.78;5132483;28;966;-59
2024/02/19 11:46:56;;;;;;;;;;;;;;;12.31;57.36;100750.84;5132425;28;901;-59
2024/02/19 11:49:22;;;;;;;;;;;;;;;12.25;56.25;100756.78;5132310;27;1905;-59
2024/02/19 11:51:49;;;;;;;;;;;;;;;12.22;57.16;100751.22;5136609;27;851;-59
2024/02/19 11:54:15;;;;;;;;;;;;;;;12.15;57.21;100745.66;5136636;27;870;-59
2024/02/19 11:56:47;;;;;;;;;;;;;;;11.90;57.38;100743.56;5136650;27;850;-59
2024/02/19 11:59:14;;;;;;;;;;;;;;;11.58;57.80;100746.13;5136548;27;909;-59
2024/02/19 12:01:40;;;;;;;;;;;;;;;11.29;59.23;100740.41;5136513;27;886;-59
2024/02/19 12:04:07;;;;;;;;;;;;;;;11.24;59.95;100738.81;5136374;27;866;-59
2024/02/19 12:06:37;;;;;;;;;;;;;;;11.23;60.12;100739.19;5136373;27;997;-58
2024/02/19 12:09:09;;;;;;;;;;;;;;;11.37;60.29;100739.28;5136274;27;1944;-59
2024/02/19 12:11:37;;;;;;;;;;;;;;;11.42;59.90;100740.91;5136426;27;831;-58
2024/02/19 12:14:04;;;;;;;;;;;;;;;11.50;60.02;100739.78;5136235;27;917;-59
2024/02/19 12:16:31;;;;;;;;;;;;;;;11.68;60.02;100733.53;5136319;27;874;-59
2024/02/19 12:18:58;;;;;;;;;;;;;;;11.66;60.86;100731.16;5136305;27;964;-59
2024/02/19 12:21:24;;;;;;;;;;;;;;;11.46;60.77;100727.88;5136350;27;921;-59
2024/02/19 12:23:52;;;;;;;;;;;;;;;11.53;61.37;100724.34;5136420;27;830;-59
2024/02/19 12:26:19;;;;;;;;;;;;;;;11.57;60.85;100725.97;5136022;27;901;-59
2024/02/19 12:28:46;;;;;;;;;;;;;;;11.69;60.52;100721.25;5135890;27;1890;-59
2024/02/19 12:31:14;;;;;;;;;;;;;;;11.81;60.81;100724.50;5135918;27;913;-59
2024/02/19 12:33:41;;;;;;;;;;;;;;;11.51;59.95;100723.94;5135941;27;930;-59
2024/02/19 12:36:09;;;;;;;;;;;;;;;11.28;60.90;100724.97;5135747;27;879;-58
2024/02/19 12:38:41;;;;;;;;;;;;;;;11.26;60.90;100718.25;5135791;27;921;-59
2024/02/19 12:41:10;;;;;;;;;;;;;;;11.22;61.01;100723.75;5118269;27;911;-59
2024/02/19 12:43:41;;;;;;;;;;;;;;;11.14;61.17;100722.13;5135667;27;918;-59
2024/02/19 12:46:08;;;;;;;;;;;;;;;10.95;61.46;100723.16;5136064;27;999;-59
2024/02/19 12:48:37;;;;;;;;;;;;;;;10.69;63.03;100719.38;5135375;27;1913;-58
2024/02/19 12:51:04;;;;;;;;;;;;;;;10.54;63.15;100717.63;5135528;27;933;-58
2024/02/19 12:53:31;;;;;;;;;;;;;;;10.33;63.15;100715.47;5135500;27;905;-58
2024/02/19 12:55:58;;;;;;;;;;;;;;;10.22;64.28;100713.34;5135537;27;863;-59
2024/02/19 12:58:24;;;;;;;;;;;;;;;10.11;67.99;100715.19;5135520;27;929;-59
2024/02/19 13:00:51;;;;;;;;;;;;;;;9.97;71.58;100707.53;5135296;27;853;-59
2024/02/19 13:03:18;;;;;;;;;;;;;;;9.77;73.97;100712.44;5135322;27;847;-59
2024/02/19 13:05:45;;;;;;;;;;;;;;;9.67;75.94;100699.28;5135295;27;965;-59
2024/02/19 13:08:12;;;;;;;;;;;;;;;9.60;76.32;100701.91;5135186;27;1954;-59
2024/02/19 13:10:38;;;;;;;;;;;;;;;9.49;77.43;100703.75;5135185;27;843;-58
2024/02/19 13:13:10;;;;;;;;;;;;;;;9.48;77.54;100702.97;5135290;27;822;-59
2024/02/19 13:15:39;;;;;;;;;;;;;;;9.61;78.95;100698.78;5135044;27;831;-59
2024/02/19 13:18:07;;;;;;;;;;;;;;;9.69;76.59;100699.69;5135154;27;855;-59
2024/02/19 13:20:35;;;;;;;;;;;;;;;9.57;77.66;100703.47;5134953;27;968;-59
2024/02/19 13:23:02;;;;;;;;;;;;;;;9.54;78.90;100708.97;5135152;27;968;-59
2024/02/19 13:25:28;;;;;;;;;;;;;;;9.42;78.89;100704.44;5134882;27;870;-59
2024/02/19 13:27:55;;;;;;;;;;;;;;;9.40;79.76;100696.53;5134799;27;1925;-59
2024/02/19 13:30:23;;;;;;;;;;;;;;;9.37;80.49;100694.53;5134848;27;886;-59
2024/02/19 13:32:50;;;;;;;;;;;;;;;9.23;80.24;100697.06;5134797;27;940;-59
2024/02/19 13:35:17;;;;;;;;;;;;;;;9.17;82.13;100693.03;5134749;27;850;-59
2024/02/19 13:37:44;;;;;;;;;;;;;;;9.13;85.08;100693.00;5134655;27;928;-58
2024/02/19 13:40:12;;;;;;;;;;;;;;;9.12;84.86;100690.59;5134616;27;1019;-58
2024/02/19 13:42:40;;;;;;;;;;;;;;;9.21;86.87;100685.63;5134557;27;814;-58
2024/02/19 13:45:09;;;;;;;;;;;;;;;9.20;92.03;100687.59;5134414;27;1029;-58
2024/02/19 13:47:36;;;;;;;;;;;;;;;9.06;92.58;100678.31;5134501;27;1913;-59
2024/02/19 13:50:03;;;;;;;;;;;;;;;8.82;96.14;100690.53;5134716;27;1318;-59
2024/02/19 13:52:29;;;;;;;;;;;;;;;8.75;96.15;100683.75;5134745;27;861;-59
2024/02/19 13:54:56;;;;;;;;;;;;;;;8.41;99.00;100688.28;5134384;27;1223;-59
2024/02/19 13:57:23;;;;;;;;;;;;;;;8.28;100.00;100693.13;5134548;27;842;-59
2024/02/19 13:59:51;;;;;;;;;;;;;;;8.24;100.00;100685.97;5134234;27;1262;-59
2024/02/19 14:02:18;;;;;;;;;;;;;;;8.06;100.00;100691.09;5134294;27;1344;-59
2024/02/19 14:04:45;;;;;;;;;;;;;;;7.85;100.00;100688.72;5134433;27;865;-58
2024/02/19 14:07:12;;;;;;;;;;;;;;;7.71;100.00;100686.50;5134298;27;821;-58
2024/02/19 14:09:41;;;;;;;;;;;;;;;7.43;100.00;100692.19;5134180;27;1878;-59
2024/02/19 14:12:08;;;;;;;;;;;;;;;7.21;100.00;100690.88;5133458;27;974;-59
2024/02/19 14:14:36;;;;;;;;;;;;;;;7.10;100.00;100690.63;5133844;27;847;-59
2024/02/19 14:17:02;;;;;;;;;;;;;;;7.09;100.00;100689.84;5133833;27;870;-58
2024/02/19 14:19:29;;;;;;;;;;;;;;;7.07;100.00;100691.38;5133678;27;899;-59
2024/02/19 14:21:56;;;;;;;;;;;;;;;6.97;100.00;100689.94;5133862;27;850;-58
2024/02/19 14:24:22;;;;;;;;;;;;;;;6.86;100.00;100686.94;5133745;27;854;-59
2024/02/19 14:26:48;;;;;;;;;;;;;;;6.72;100.00;100681.09;5133924;27;819;-59
2024/02/19 14:29:15;;;;;;;;;;;;;;;6.59;100.00;100691.38;5133748;27;1944;-58
2024/02/19 14:31:42;;;;;;;;;;;;;;;6.48;100.00;100693.03;5133870;27;918;-59
2024/02/19 14:34:09;;;;;;;;;;;;;;;6.36;100.00;100690.38;5133726;27;1217;-59
2024/02/19 14:36:36;;;;;;;;;;;;;;;6.24;100.00;100683.81;5133773;27;867;-58
2024/02/19 14:39:03;;;;;;;;;;;;;;;6.12;100.00;100689.34;5133469;27;1377;-59
2024/02/19 14:41:30;;;;;;;;;;;;;;;5.97;100.00;100690.91;5133628;27;803;-59
2024/02/19 14:43:56;;;;;;;;;;;;;;;5.87;100.00;100691.41;5133816;27;871;-59
2024/02/19 14:46:23;;;;;;;;;;;;;;;5.80;100.00;100682.94;5133772;27;1188;-58
2024/02/19 14:48:50;;;;;;;;;;;;;;;5.68;100.00;100689.28;5133033;27;1968;-58
2024/02/19 14:51:18;;;;;;;;;;;;;;;5.60;100.00;100691.00;5133375;27;879;-58
2024/02/19 14:53:45;;;;;;;;;;;;;;;5.58;100.00;100695.25;5133438;27;957;-59
2024/02/19 14:56:12;;;;;;;;;;;;;;;5.55;100.00;100693.19;5114915;27;1344;-59
2024/02/19 14:58:38;;;;;;;;;;;;;;;5.55;100.00;100694.00;5133410;27;1230;-59
2024/02/19 15:01:05;;;;;;;;;;;;;;;5.60;100.00;100691.00;5133374;27;866;-59
2024/02/19 15:03:34;;;;;;;;;;;;;;;5.63;100.00;100692.25;5133237;27;993;-58
2024/02/19 15:06:00;;;;;;;;;;;;;;;5.65;100.00;100696.22;5133194;27;823;-59
2024/02/19 15:08:27;;;;;;;;;;;;;;;5.68;100.00;100694.75;5133088;27;1881;-59
2024/02/19 15:10:54;;;;;;;;;;;;;;;5.69;100.00;100691.66;5133371;27;890;-59
2024/02/19 15:13:21;;;;;;;;;;;;;;;5.72;100.00;100695.66;5133351;27;1309;-59
2024/02/19 15:15:48;;;;;;;;;;;;;;;5.69;100.00;100693.59;5133131;27;847;-58
2024/02/19 15:18:15;;;;;;;;;;;;;;;5.68;100.00;100694.75;5114650;27;2524;-59
2024/02/19 15:20:42;;;;;;;;;;;;;;;5.64;100.00;100700.13;5114618;28;1312;-59
2024/02/19 15:23:09;;;;;;;;;;;;;;;5.64;100.00;100688.38;5133078;27;854;-59
2024/02/19 15:25:36;;;;;;;;;;;;;;;5.62;100.00;100698.91;5132971;27;1216;-58
2024/02/19 15:28:03;;;;;;;;;;;;;;;5.64;100.00;100696.59;5114458;28;2414;-59
2024/02/19 15:30:30;;;;;;;;;;;;;;;5.66;100.00;100691.56;5133011;28;830;-59
2024/02/19 15:32:57;;;;;;;;;;;;;;;5.67;100.00;100693.16;5133158;28;803;-59
2024/02/19 15:35:25;;;;;;;;;;;;;;;5.66;100.00;100695.09;5132812;28;910;-59
2024/02/19 15:37:52;;;;;;;;;;;;;;;5.68;100.00;100692.03;5132772;28;897;-59
2024/02/19 15:40:20;;;;;;;;;;;;;;;5.65;100.00;100698.97;5132841;28;854;-59
2024/02/19 15:42:47;;;;;;;;;;;;;;;5.60;100.00;100698.44;5132615;28;981;-59
2024/02/19 15:45:14;;;;;;;;;;;;;;;5.57;100.00;100705.41;5132799;28;937;-59
2024/02/19 15:47:40;;;;;;;;;;;;;;;5.52;100.00;100703.69;5132358;28;1901;-59
2024/02/19 15:50:07;;;;;;;;;;;;;;;5.47;100.00;100714.91;5132777;28;842;-59
2024/02/19 15:52:35;;;;;;;;;;;;;;;5.43;100.00;100705.00;5132850;28;862;-59
2024/02/19 15:55:03;;;;;;;;;;;;;;;5.41;100.00;100718.25;5114121;28;1191;-59
2024/02/19 15:57:29;;;;;;;;;;;;;;;5.36;100.00;100710.25;5132527;28;914;-59
2024/02/19 15:59:56;;;;;;;;;;;;;;;5.30;100.00;100713.22;5132509;28;823;-59
2024/02/19 16:02:23;;;;;;;;;;;;;;;5.24;100.00;100711.84;5132517;28;897;-59
2024/02/19 16:04:50;;;;;;;;;;;;;;;5.19;100.00;100706.63;5132626;28;839;-59
2024/02/19 16:07:17;;;;;;;;;;;;;;;5.18;100.00;100720.66;5132559;28;878;-59
2024/02/19 16:09:44;;;;;;;;;;;;;;;5.17;100.00;100719.06;5132384;28;1914;-59
2024/02/19 16:12:11;;;;;;;;;;;;;;;5.13;100.00;100710.72;5132427;28;886;-59
2024/02/19 16:14:38;;;;;;;;;;;;;;;5.05;100.00;100712.44;5132324;28;902;-59
2024/02/19 16:17:05;;;;;;;;;;;;;;;5.04;100.00;100719.06;5132358;28;866;-59
2024/02/19 16:19:32;;;;;;;;;;;;;;;5.00;100.00;100717.34;5132185;28;632;-59
2024/02/19 16:21:59;;;;;;;;;;;;;;;4.98;100.00;100720.44;5132256;28;847;-59
2024/02/19 16:24:33;;;;;;;;;;;;;;;4.98;100.00;100716.91;5132281;28;886;-59
2024/02/19 16:27:00;;;;;;;;;;;;;;;4.96;100.00;100719.19;5132148;28;830;-59
2024/02/19 16:29:28;;;;;;;;;;;;;;;4.96;100.00;100717.22;5132171;28;1958;-59
2024/02/19 16:31:56;;;;;;;;;;;;;;;4.95;100.00;100717.56;5132140;28;882;-59
2024/02/19 16:34:23;;;;;;;;;;;;;;;4.91;100.00;100722.94;5132464;28;842;-59
2024/02/19 16:36:50;;;;;;;;;;;;;;;4.86;100.00;100726.69;5134408;27;1028;-58
2024/02/19 16:39:18;;;;;;;;;;;;;;;4.83;100.00;100721.13;5135803;27;1046;-58
2024/02/19 16:41:45;;;;;;;;;;;;;;;4.80;100.00;100725.34;5135795;27;901;-59
2024/02/19 16:44:11;;;;;;;;;;;;;;;4.80;100.00;100727.25;5117254;27;926;-59
2024/02/19 16:46:38;;;;;;;;;;;;;;;4.80;100.00;100727.25;5136167;27;965;-59
2024/02/19 16:49:05;;;;;;;;;;;;;;;4.82;100.00;100734.03;5135438;27;1941;-58
2024/02/19 16:51:32;;;;;;;;;;;;;;;4.80;100.00;100732.72;5135431;27;933;-59
2024/02/19 16:54:00;;;;;;;;;;;;;;;4.77;100.00;100738.91;5135556;27;828;-59
2024/02/19 16:56:26;;;;;;;;;;;;;;;4.74;100.00;100742.31;5135472;27;827;-59
2024/02/19 16:58:53;;;;;;;;;;;;;;;4.78;100.00;100735.84;5135356;27;909;-59
2024/02/19 17:01:20;;;;;;;;;;;;;;;4.81;100.00;100735.16;5135479;27;905;-59
2024/02/19 17:03:47;;;;;;;;;;;;;;;4.82;100.00;100725.81;5135370;27;918;-59
2024/02/19 17:06:14;;;;;;;;;;;;;;;4.83;100.00;100732.06;5135299;27;836;-62
2024/02/19 17:08:43;;;;;;;;;;;;;;;4.81;100.00;100728.88;5135215;27;1943;-59
2024/02/19 17:11:10;;;;;;;;;;;;;;;4.74;100.00;100736.84;5135202;27;878;-59
2024/02/19 17:13:36;;;;;;;;;;;;;;;4.69;100.00;100743.34;5135185;27;855;-59
2024/02/19 17:16:03;;;;;;;;;;;;;;;4.69;100.00;100741.41;5135468;27;830;-59
2024/02/19 17:18:30;;;;;;;;;;;;;;;4.69;100.00;100744.16;5135113;27;815;-59
2024/02/19 17:20:56;;;;;;;;;;;;;;;4.72;100.00;100741.88;5135150;27;830;-59
2024/02/19 17:23:23;;;;;;;;;;;;;;;4.72;100.00;100739.13;5135002;27;893;-59
2024/02/19 17:25:49;;;;;;;;;;;;;;;4.70;100.00;100736.72;5134970;27;878;-59
2024/02/19 17:28:18;;;;;;;;;;;;;;;4.64;100.00;100730.66;5134921;27;1893;-59
2024/02/19 17:30:45;;;;;;;;;;;;;;;4.73;100.00;100740.72;5116277;27;1334;-59
2024/02/19 17:33:12;;;;;;;;;;;;;;;4.73;100.00;100736.03;5134713;27;1107;-59
2024/02/19 17:35:39;;;;;;;;;;;;;;;4.70;100.00;100745.75;5134711;27;858;-59
2024/02/19 17:38:05;;;;;;;;;;;;;;;4.64;100.00;100738.88;5134719;27;827;-59
2024/02/19 17:40:33;;;;;;;;;;;;;;;4.56;100.00;100738.97;5116224;27;1206;-59
2024/02/19 17:43:00;;;;;;;;;;;;;;;4.46;100.00;100738.28;5134625;27;874;-59
2024/02/19 17:45:27;;;;;;;;;;;;;;;4.36;100.00;100730.50;5134701;27;956;-59
2024/02/19 17:47:54;;;;;;;;;;;;;;;4.30;100.00;100731.84;5133249;27;1988;-59
2024/02/19 17:50:20;;;;;;;;;;;;;;;4.24;100.00;100733.19;5134623;27;882;-59
2024/02/19 17:52:47;;;;;;;;;;;;;;;4.22;100.00;100732.72;5134561;27;792;-59
2024/02/19 17:55:15;;;;;;;;;;;;;;;4.20;100.00;100729.50;5134498;27;909;-59
2024/02/19 17:57:42;;;;;;;;;;;;;;;4.20;100.00;100732.25;5134268;27;839;-59
2024/02/19 18:00:09;;;;;;;;;;;;;;;4.24;100.00;100733.19;5134264;27;823;-59
2024/02/19 18:02:36;;;;;;;;;;;;;;;4.27;100.00;100735.25;5134342;27;907;-59
2024/02/19 18:05:03;;;;;;;;;;;;;;;4.26;100.00;100720.75;5134278;27;826;-59
2024/02/19 18:07:30;;;;;;;;;;;;;;;4.24;100.00;100728.50;5134046;27;827;-59
2024/02/19 18:09:57;;;;;;;;;;;;;;;4.27;100.00;100732.53;5134064;27;1931;-59
2024/02/19 18:12:24;;;;;;;;;;;;;;;4.29;100.00;100730.25;5134007;27;926;-59
2024/02/19 18:14:51;;;;;;;;;;;;;;;4.29;100.00;100724.78;5134007;27;912;-59
2024/02/19 18:17:18;;;;;;;;;;;;;;;4.25;100.00;100721.91;5133972;27;819;-59
2024/02/19 18:19:46;;;;;;;;;;;;;;;4.17;100.00;100713.78;5133869;27;858;-59
2024/02/19 18:22:13;;;;;;;;;;;;;;;4.12;100.00;100717.53;5133775;27;815;-59
2024/02/19 18:24:40;;;;;;;;;;;;;;;4.07;100.00;100721.25;5133719;27;886;-59
2024/02/19 18:27:08;;;;;;;;;;;;;;;4.00;100.00;100721.00;5133724;27;824;-59
2024/02/19 18:29:35;;;;;;;;;;;;;;;3.90;100.00;100724.16;5133622;27;1945;-59
2024/02/19 18:32:01;;;;;;;;;;;;;;;3.78;100.00;100722.16;5133917;27;851;-59
2024/02/19 18:34:30;;;;;;;;;;;;;;;3.64;100.00;100721.63;5133548;27;843;-59
2024/02/19 18:36:58;;;;;;;;;;;;;;;3.51;100.00;100730.88;5133615;27;890;-59
2024/02/19 18:39:31;;;;;;;;;;;;;;;3.44;100.00;100731.41;5133414;27;843;-61
2024/02/19 18:41:57;;;;;;;;;;;;;;;3.37;100.00;100731.94;5133628;27;858;-59
2024/02/19 18:44:24;;;;;;;;;;;;;;;3.35;100.00;100733.38;5133877;27;1006;-59
2024/02/19 18:46:50;;;;;;;;;;;;;;;3.37;100.00;100737.41;5133783;27;804;-59
2024/02/19 18:49:17;;;;;;;;;;;;;;;3.39;100.00;100737.06;5133220;27;1979;-59
2024/02/19 18:51:45;;;;;;;;;;;;;;;3.42;100.00;100739.16;5133219;27;1211;-59
2024/02/19 18:54:13;;;;;;;;;;;;;;;3.44;100.00;100739.63;5133511;27;831;-59
2024/02/19 18:56:40;;;;;;;;;;;;;;;3.45;100.00;100739.25;5133350;27;819;-59
2024/02/19 18:59:07;;;;;;;;;;;;;;;3.47;100.00;100738.94;5132849;27;930;-59
2024/02/19 19:01:34;;;;;;;;;;;;;;;3.50;100.00;100742.94;5114727;27;1242;-59
2024/02/19 19:04:02;;;;;;;;;;;;;;;3.55;100.00;100734.56;5133268;27;934;-59
2024/02/19 19:06:30;;;;;;;;;;;;;;;3.58;100.00;100736.63;5133143;27;885;-59
2024/02/19 19:09:02;;;;;;;;;;;;;;;3.64;100.00;100732.56;5133054;27;1943;-59
2024/02/19 19:11:29;;;;;;;;;;;;;;;3.69;100.00;100743.28;5133096;27;825;-59
2024/02/19 19:13:56;;;;;;;;;;;;;;;3.73;100.00;100729.75;5132902;27;815;-59
2024/02/19 19:16:23;;;;;;;;;;;;;;;3.75;100.00;100733.75;5133008;27;862;-59
2024/02/19 19:18:51;;;;;;;;;;;;;;;3.79;100.00;100722.97;5132900;27;857;-59
2024/02/19 19:21:17;;;;;;;;;;;;;;;3.80;100.00;100730.84;5132852;27;815;-59
2024/02/19 19:23:46;;;;;;;;;;;;;;;3.81;100.00;100726.94;5132827;27;878;-59
2024/02/19 19:26:13;;;;;;;;;;;;;;;3.84;100.00;100726.31;5133100;27;925;-59
2024/02/19 19:28:38;;;;;;;;;;;;;;;3.85;100.00;100727.88;5114195;27;1885;-59
2024/02/19 19:31:05;;;;;;;;;;;;;;;3.88;100.00;100718.22;5132818;27;855;-59
2024/02/19 19:33:33;;;;;;;;;;;;;;;3.92;100.00;100723.81;5132779;28;839;-59
2024/02/19 19:36:01;;;;;;;;;;;;;;;3.93;100.00;100722.69;5114162;28;1182;-59
2024/02/19 19:38:29;;;;;;;;;;;;;;;3.94;100.00;100724.28;5132951;28;842;-59
2024/02/19 19:40:56;;;;;;;;;;;;;;;3.93;100.00;100725.44;5132550;28;878;-59
2024/02/19 19:43:23;;;;;;;;;;;;;;;3.94;100.00;100724.28;5132729;28;874;-59
2024/02/19 19:45:51;;;;;;;;;;;;;;;3.95;100.00;100725.88;5132526;28;935;-59
2024/02/19 19:48:18;;;;;;;;;;;;;;;3.95;100.00;100712.19;5132293;28;1922;-59
2024/02/19 19:50:45;;;;;;;;;;;;;;;3.95;100.00;100718.50;5132651;28;906;-59
2024/02/19 19:53:12;;;;;;;;;;;;;;;3.98;100.00;100709.59;5132500;28;878;-59
2024/02/19 19:55:39;;;;;;;;;;;;;;;4.03;100.00;100717.63;5132593;28;827;-59
2024/02/19 19:58:07;;;;;;;;;;;;;;;4.07;100.00;100718.50;5132499;28;964;-59
2024/02/19 20:00:34;;;;;;;;;;;;;;;4.13;100.00;100716.38;5132421;28;830;-59
2024/02/19 20:03:02;;;;;;;;;;;;;;;4.17;100.00;100717.31;5132495;28;827;-59
2024/02/19 20:05:29;;;;;;;;;;;;;;;4.20;100.00;100713.88;5132548;28;884;-59
2024/02/19 20:07:57;;;;;;;;;;;;;;;4.23;100.00;100715.19;5132730;28;1894;-59
2024/02/19 20:10:25;;;;;;;;;;;;;;;4.23;100.00;100709.69;5132351;27;862;-59
2024/02/19 20:12:51;;;;;;;;;;;;;;;4.19;100.00;100709.56;5136468;27;941;-59
2024/02/19 20:15:18;;;;;;;;;;;;;;;4.14;100.00;100704.31;5136337;27;875;-59
2024/02/19 20:17:44;;;;;;;;;;;;;;;4.08;100.00;100700.97;5136316;27;819;-59
2024/02/19 20:20:11;;;;;;;;;;;;;;;4.02;100.00;100701.53;5136407;27;870;-59
2024/02/19 20:22:38;;;;;;;;;;;;;;;3.94;100.00;100699.66;5117775;27;1155;-59
2024/02/19 20:25:05;;;;;;;;;;;;;;;3.89;100.00;100696.00;5136131;27;823;-59
2024/02/19 20:27:32;;;;;;;;;;;;;;;3.87;100.00;100702.94;5136064;27;898;-59
2024/02/19 20:29:59;;;;;;;;;;;;;;;3.85;100.00;100708.75;5135941;27;1881;-59
2024/02/19 20:32:26;;;;;;;;;;;;;;;3.81;100.00;100716.00;5136011;27;928;-59
2024/02/19 20:34:52;;;;;;;;;;;;;;;3.82;100.00;100711.34;5135907;27;879;-59
2024/02/19 20:37:19;;;;;;;;;;;;;;;3.84;100.00;100704.41;5135837;27;854;-59
2024/02/19 20:39:48;;;;;;;;;;;;;;;3.83;100.00;100702.81;5135905;27;847;-59
2024/02/19 20:42:18;;;;;;;;;;;;;;;3.81;100.00;100705.06;5135699;27;841;-59
2024/02/19 20:44:48;;;;;;;;;;;;;;;3.81;100.00;100704.28;5135770;27;899;-59
2024/02/19 20:47:16;;;;;;;;;;;;;;;3.85;100.00;100699.75;5135834;27;1246;-59
2024/02/19 20:49:44;;;;;;;;;;;;;;;3.91;100.00;100712.09;5135761;27;1965;-59
2024/02/19 20:52:11;;;;;;;;;;;;;;;3.98;100.00;100711.53;5135663;27;887;-59
2024/02/19 20:54:38;;;;;;;;;;;;;;;4.02;100.00;100698.78;5135558;27;834;-59
2024/02/19 20:57:06;;;;;;;;;;;;;;;4.02;100.00;100699.59;5135739;27;815;-59
2024/02/19 20:59:33;;;;;;;;;;;;;;;4.02;100.00;100696.84;5135594;27;834;-59
2024/02/19 21:02:00;;;;;;;;;;;;;;;4.02;100.00;100694.13;5135686;27;889;-59
2024/02/19 21:04:34;;;;;;;;;;;;;;;4.06;100.00;100697.78;5135520;27;905;-59
2024/02/19 21:07:02;;;;;;;;;;;;;;;4.11;100.00;100694.03;5135310;27;826;-59
2024/02/19 21:09:29;;;;;;;;;;;;;;;4.12;100.00;100687.44;5135309;27;1961;-59
2024/02/19 21:11:56;;;;;;;;;;;;;;;4.11;100.00;100688.56;5135180;27;910;-59
2024/02/19 21:14:23;;;;;;;;;;;;;;;4.08;100.00;100687.31;5135431;27;894;-59
2024/02/19 21:16:49;;;;;;;;;;;;;;;4.06;100.00;100686.84;5135210;27;902;-59
2024/02/19 21:19:18;;;;;;;;;;;;;;;4.07;100.00;100682.16;5135117;27;949;-59
2024/02/19 21:21:44;;;;;;;;;;;;;;;4.12;100.00;100679.22;5116422;27;1178;-59
2024/02/19 21:24:11;;;;;;;;;;;;;;;4.16;100.00;100677.41;5135090;27;958;-59
2024/02/19 21:26:38;;;;;;;;;;;;;;;4.23;100.00;100679.59;5135047;27;922;-59
2024/02/19 21:29:05;;;;;;;;;;;;;;;4.30;100.00;100677.09;5134739;27;1885;-60
2024/02/19 21:31:31;;;;;;;;;;;;;;;4.35;100.00;100678.81;5134978;27;858;-60
2024/02/19 21:33:58;;;;;;;;;;;;;;;4.37;100.00;100676.53;5134834;27;897;-60
2024/02/19 21:36:25;;;;;;;;;;;;;;;4.35;100.00;100668.66;5134742;27;894;-60
2024/02/19 21:38:51;;;;;;;;;;;;;;;4.32;100.00;100674.81;5134711;27;874;-59
2024/02/19 21:41:18;;;;;;;;;;;;;;;4.29;100.00;100676.31;5134647;27;970;-60
2024/02/19 21:43:44;;;;;;;;;;;;;;;4.30;100.00;100675.16;5116190;27;1557;-60
2024/02/19 21:46:12;;;;;;;;;;;;;;;4.32;100.00;100679.50;5134976;27;1035;-60
2024/02/19 21:48:39;;;;;;;;;;;;;;;4.28;100.00;100671.94;5134342;27;1905;-59
2024/02/19 21:51:07;;;;;;;;;;;;;;;4.24;100.00;100679.25;5134369;27;867;-59
2024/02/19 21:53:34;;;;;;;;;;;;;;;4.20;100.00;100667.38;5134524;27;899;-60
2024/02/19 21:56:02;;;;;;;;;;;;;;;4.16;100.00;100671.94;5134258;27;895;-60
2024/02/19 21:58:29;;;;;;;;;;;;;;;4.12;100.00;100664.72;5134428;27;1348;-60
2024/02/19 22:00:54;;;;;;;;;;;;;;;4.11;100.00;100674.09;5134269;27;808;-60
2024/02/19 22:03:22;;;;;;;;;;;;;;;4.07;100.00;100661.06;5134126;27;885;-59
2024/02/19 22:05:49;;;;;;;;;;;;;;;4.04;100.00;100658.22;5115749;27;1501;-59
2024/02/19 22:08:16;;;;;;;;;;;;;;;4.01;100.00;100659.69;5134043;27;1886;-60
2024/02/19 22:10:44;;;;;;;;;;;;;;;4.01;100.00;100665.19;5134059;27;854;-59
2024/02/19 22:13:10;;;;;;;;;;;;;;;4.05;100.00;100657.06;5115602;27;850;-60
2024/02/19 22:15:37;;;;;;;;;;;;;;;4.05;100.00;100655.16;5133994;27;831;-59
2024/02/19 22:18:05;;;;;;;;;;;;;;;4.06;100.00;100654.00;5133905;27;839;-59
2024/02/19 22:20:31;;;;;;;;;;;;;;;4.04;100.00;100655.50;5133927;27;921;-59
2024/02/19 22:22:58;;;;;;;;;;;;;;;3.97;100.00;100653.31;5133825;27;804;-59
2024/02/19 22:25:24;;;;;;;;;;;;;;;3.94;100.00;100653.16;5133828;27;867;-59
2024/02/19 22:27:53;;;;;;;;;;;;;;;3.91;100.00;100649.19;5133734;27;1963;-59
2024/02/19 22:30:22;;;;;;;;;;;;;;;3.85;100.00;100651.31;5133658;27;898;-59
2024/02/19 22:32:49;;;;;;;;;;;;;;;3.80;100.00;100645.28;5133415;27;905;-59
2024/02/19 22:35:16;;;;;;;;;;;;;;;3.73;100.00;100645.78;5133391;27;894;-59
2024/02/19 22:37:43;;;;;;;;;;;;;;;3.63;100.00;100638.81;5133888;27;879;-59
2024/02/19 22:40:11;;;;;;;;;;;;;;;3.55;100.00;100642.41;5133391;27;852;-60
2024/02/19 22:42:37;;;;;;;;;;;;;;;3.44;100.00;100631.09;5133383;27;864;-60
2024/02/19 22:45:04;;;;;;;;;;;;;;;3.29;100.00;100631.69;5133320;27;973;-60